• Join FlightAware (Why Join?)
  • Login
  • US Flag 
04:21PM EDT


 

Airport Tracker/Info


-or-


 

Live Flight TrackerFlight Track Log ✈ N246MP ✈ 15-Jun-2013 ✈ KELM - KELM

Flight Track Log - Related Links

Times and Time Zones

All times are in EDT time to prevent confusion due to time zone crossing. See the N246MP flight status page for this flight to view local times or setup timezone preferences in your user account.

Time Position Orientation Groundspeed Altitude Reporting Facility
EDT Latitude Longitude Course Direction KTS MPH feet Rate Location/Type
08:26AM 42.1908 -76.9228 40° Northeast 135 155 2,900  Level New York Center
08:27AM 42.2136 -76.8856 50° Northeast 135 155 3,500 600 Climbing New York Center
08:28AM 42.2403 -76.8517 43° Northeast 130 150 4,200 660 Climbing New York Center
08:29AM 42.2653 -76.8147 48° Northeast 130 150 4,900 660 Climbing New York Center
08:30AM 42.2900 -76.7778 48° Northeast 130 150 5,600 720 Climbing New York Center
08:31AM 42.2969 -76.7340 40° Northeast  Level Estimated
08:31AM 42.3144 -76.7436 46° Northeast 130 150 6,400  Level New York Center
08:32AM 42.3242 -76.7024 40° Northeast  Level Estimated
08:32AM 42.3372 -76.7064 50° Northeast 130 150 7,100  Level New York Center
08:33AM 42.3619 -76.6722 46° Northeast 130 150 7,700 540 Climbing New York Center
08:34AM 42.3844 -76.6350 51° Northeast 135 155 8,300 600 Climbing New York Center
08:35AM 42.4094 -76.5922 52° Northeast 135 155 9,000 660 Climbing New York Center
08:36AM 42.4322 -76.5492 54° Northeast 135 155 9,600 600 Climbing New York Center
08:37AM 42.4572 -76.5067 51° Northeast 135 155 10,200 600 Climbing New York Center
08:38AM 42.4800 -76.4664 53° Northeast 140 161 10,800 540 Climbing New York Center
08:39AM 42.5050 -76.4236 52° Northeast 140 161 11,300 480 Climbing New York Center
08:40AM 42.5300 -76.3778 53° Northeast 146 168 11,800 540 Climbing New York Center
08:41AM 42.5531 -76.3319 56° Northeast 146 168 12,400 600 Climbing New York Center
08:42AM 42.5747 -76.2919 54° Northeast 153 176 13,100 540 Climbing Boston Center
08:43AM 42.5975 -76.2342 62° Northeast 153 176 13,600 540 Climbing Boston Center
08:44AM 42.6200 -76.1875 57° Northeast 153 176 14,200 540 Climbing Boston Center
08:45AM 42.6425 -76.1381 58° Northeast 153 176 14,700 540 Climbing Boston Center
08:46AM 42.6669 -76.0914 55° Northeast 153 176 15,300 600 Climbing Boston Center
08:47AM 42.6953 -76.0508 46° Northeast 153 176 15,900 600 Climbing Boston Center
08:48AM 42.7236 -76.0128 45° Northeast 147 169 16,500 540 Climbing Boston Center
08:49AM 42.7519 -75.9747 45° Northeast 137 158 17,000 480 Climbing Boston Center
08:50AM 42.7803 -75.9339 47° Northeast 137 158 17,500 300 Climbing Boston Center
08:51AM 42.8131 -75.8878 46° Northeast 142 163 17,600  Climbing Boston Center
08:52AM 42.8478 -75.8386 46° Northeast 156 180 17,600  Level Boston Center
08:53AM 42.8889 -75.7928 39° Northeast 169 194 17,600 -60 Level Boston Center
08:54AM 42.9256 -75.7436 44° Northeast 175 201 17,500  Descending Boston Center
08:55AM 42.9625 -75.6947 44° Northeast 175 201 17,600  Climbing Boston Center
08:56AM 43.0017 -75.6400 46° Northeast 180 207 17,500 -60 Descending Boston Center
08:57AM 43.0364 -75.5878 48° Northeast 185 213 17,500  Level Boston Center
08:58AM 43.0753 -75.5328 46° Northeast 190 219 17,600  Climbing Boston Center
08:59AM 43.1122 -75.4806 46° Northeast 185 213 17,500  Descending Boston Center
09:00AM 43.1492 -75.4256 47° Northeast 185 213 17,600  Climbing Boston Center
09:01AM 43.1858 -75.3733 46° Northeast 185 213 17,600  Level Boston Center
09:02AM 43.2247 -75.3181 46° Northeast 185 213 17,600 -60 Level Boston Center
09:03AM 43.2594 -75.2683 46° Northeast 185 213 17,500 -60 Descending Boston Center
09:04AM 43.2961 -75.2131 48° Northeast 185 213 17,500  Level Boston Center
09:05AM 43.3308 -75.1633 46° Northeast 193 222 17,500  Level Boston Center
09:06AM 43.3717 -75.1136 42° Northeast 193 222 17,500  Level Boston Center
09:07AM 43.4081 -75.0639 45° Northeast 188 216 17,600  Climbing Boston Center
09:08AM 43.4467 -75.0169 41° Northeast 188 216 17,500 -60 Descending Boston Center
09:09AM 43.4833 -74.9639 46° Northeast 188 216 17,500  Level Boston Center
09:10AM 43.5219 -74.9142 43° Northeast 188 216 17,500  Level Boston Center
09:11AM 43.5586 -74.8611 46° Northeast 188 216 17,600  Climbing Boston Center
09:12AM 43.5972 -74.8083 45° Northeast 188 216 17,600  Level Boston Center
09:14AM 43.6317 -74.7550 48° Northeast 188 216 17,600 -60 Level Boston Center
09:15AM 43.6767 -74.6936 45° Northeast 188 216 17,500  Descending Boston Center
09:16AM 43.7131 -74.6433 45° Northeast 188 216 17,600  Climbing Boston Center
09:17AM 43.7494 -74.5900 47° Northeast 188 216 17,500 -60 Descending Boston Center
09:18AM 43.7836 -74.5394 47° Northeast 188 216 17,500  Level Boston Center
09:19AM 43.8203 -74.4831 48° Northeast 188 216 17,500  Level Boston Center
09:20AM 43.8564 -74.4325 45° Northeast 188 216 17,500  Level Boston Center
09:21AM 43.8928 -74.3847 43° Northeast 183 211 17,500  Level Boston Center
09:22AM 43.9250 -74.3281 52° Northeast 183 211 17,500  Level Boston Center
09:23AM 43.9325 -74.2533 82° East 175 201 17,500  Level Boston Center
09:24AM 43.8761 -74.2489 177° South 102 117 17,500  Level Boston Center
09:25AM 43.8753 -74.1797 91° East 150 173 17,600  Climbing Boston Center
09:26AM 43.8975 -74.2150 311° West 36 41 17,600  Level Boston Center
09:27AM 43.9114 -74.2556 295° West 71 82 17,600 -120 Level Boston Center
09:28AM 43.9528 -74.2800 337° Northwest 112 129 17,400 -120 Descending Boston Center
09:29AM 44.0028 -74.2786 North 133 153 17,400  Level Boston Center
09:30AM 44.0444 -74.2769 North 145 167 17,400  Level Boston Center
09:31AM 44.0967 -74.2758 North 145 167 17,400  Level Boston Center
09:32AM 44.1383 -74.2742 North 150 173 17,500  Climbing Boston Center
09:33AM 44.1822 -74.2756 359° North 150 173 17,400 -60 Descending Boston Center
09:34AM 44.2236 -74.2767 359° North 150 173 17,400  Level Boston Center
09:35AM 44.2656 -74.2753 North 150 173 17,400  Level Boston Center
09:36AM 44.3092 -74.2708 North 150 173 17,400  Level Boston Center
09:37AM 44.3508 -74.2750 356° North 145 167 17,400  Level Boston Center
09:38AM 44.3925 -74.2703 North 145 167 17,400  Level Boston Center
09:39AM 44.4364 -74.2717 359° North 145 167 17,400  Level Boston Center
09:40AM 44.4842 -74.2733 359° North 145 167 17,400  Level Boston Center
09:41AM 44.5258 -74.2744 359° North 145 167 17,400  Level Boston Center
09:42AM 44.5697 -74.2731 North 145 167 17,400  Level Boston Center
09:43AM 44.6114 -74.2714 North 145 167 17,400  Level Boston Center
09:44AM 44.6550 -74.2728 359° North 150 173 17,400  Level Boston Center
09:45AM 44.6969 -74.2711 North 150 173 17,400  Level Boston Center
09:46AM 44.7406 -74.2694 North 150 173 17,400  Level Boston Center
09:47AM 44.7803 -74.2708 359° North 150 173 17,400  Level Boston Center
09:48AM 44.8239 -74.2722 359° North 150 173 17,400  Level Boston Center
09:49AM 44.8594 -74.2703 North 150 173 17,400  Level Boston Center
09:50AM 44.9094 -74.2689 North 150 173 17,400  Level Boston Center
09:51AM 44.9511 -74.2672 North 150 173 17,400  Level Boston Center
09:52AM 44.9928 -74.2686 359° North 145 167 17,400  Level Boston Center
09:53AM 45.0364 -74.2700 359° North 145 167 17,400  Level Boston Center
09:54AM 45.0567 -74.3031 311° West 106 122 17,400  Level Boston Center
09:55AM 45.0619 -74.3589 278° West 111 128 17,400  Level Boston Center
09:56AM 45.0694 -74.4150 281° West 128 147 17,500  Climbing Boston Center
09:57AM 45.0706 -74.4739 272° West 146 168 17,400 -60 Descending Boston Center
09:58AM 45.0800 -74.5272 284° West 151 174 17,400  Level Boston Center
09:59AM 45.0936 -74.5806 290° West 151 174 17,500  Climbing Boston Center
10:00AM 45.1114 -74.6283 298° West 146 168 17,400 -60 Descending Boston Center
10:01AM 45.1292 -74.6789 297° West 146 168 17,400  Level Boston Center
10:02AM 45.1117 -74.7194 239° Southwest 126 145 17,400  Level Boston Center
10:03AM 45.0533 -74.7203 181° South 141 162 17,500  Climbing Boston Center
10:04AM 44.9931 -74.7206 180° South 180 207 17,400  Descending Boston Center
10:05AM 44.9306 -74.7211 180° South 207 238 17,500 60 Climbing Boston Center
10:06AM 44.8700 -74.7217 180° South 221 254 17,600  Climbing Boston Center
10:07AM 44.8097 -74.7222 180° South 221 254 17,500 -60 Descending Boston Center
10:08AM 44.7492 -74.7228 180° South 221 254 17,500  Level Boston Center
10:09AM 44.6806 -74.7203 179° South 221 254 17,600  Climbing Boston Center
10:10AM 44.6200 -74.7208 180° South 221 254 17,500 -60 Descending Boston Center
10:11AM 44.5597 -74.7183 178° South 216 249 17,500  Level Boston Center
10:12AM 44.4992 -74.7219 182° South 216 249 17,500  Level Boston Center
10:13AM 44.4389 -74.7197 178° South 216 249 17,500  Level Boston Center
10:14AM 44.3783 -74.7231 182° South 216 249 17,500  Level Boston Center
10:15AM 44.3158 -74.7236 180° South 216 249 17,500  Level Boston Center
10:16AM 44.2678 -74.7247 181° South 216 249 17,500  Level Boston Center
10:17AM 44.1950 -74.7247 180° South 216 249 17,500  Level Boston Center
10:18AM 44.1344 -74.7253 180° South 216 249 17,500  Level Boston Center
10:19AM 44.0700 -74.7228 178° South 216 249 17,500  Level Boston Center
10:20AM 44.0094 -74.7264 182° South 216 249 17,500  Level Boston Center
10:21AM 43.9511 -74.7242 178° South 216 249 17,600  Climbing Boston Center
10:22AM 43.9108 -74.7572 211° Southwest 208 239 17,600  Level Boston Center
10:23AM 43.9117 -74.8147 271° West 144 166 17,600  Level Boston Center
10:24AM 43.9272 -74.8672 292° West 132 152 17,600  Level Boston Center
10:25AM 43.9408 -74.9197 290° West 137 158 17,600  Level Boston Center
10:26AM 43.9542 -74.9722 289° West 148 170 17,600  Level Boston Center
10:27AM 43.9675 -75.0247 289° West 148 170 17,600  Level Boston Center
10:28AM 43.9875 -75.0719 300° West 148 170 17,600  Level Boston Center
10:29AM 44.0072 -75.1189 300° West 148 170 17,600  Level Boston Center
10:30AM 44.0267 -75.1689 298° West 148 170 17,600  Level Boston Center
10:31AM 44.0508 -75.2075 311° West 143 165 17,600  Level Boston Center
10:32AM 44.0706 -75.2575 299° West 143 165 17,600  Level Boston Center
10:33AM 44.0817 -75.3100 286° West 143 165 17,600  Level Boston Center
10:34AM 44.0494 -75.3519 223° Southwest 135 155 17,600  Level Boston Center
10:35AM 44.0233 -75.3911 227° Southwest 135 155 17,600  Level Boston Center
10:36AM 44.0364 -75.4494 287° West 135 155 17,600  Level Boston Center
10:37AM 44.0286 -75.5097 260° West 149 171 17,600  Level Boston Center
10:38AM 44.0061 -75.5664 241° Southwest 160 184 17,600  Level Boston Center
10:39AM 44.0047 -75.6239 268° West 160 184 17,600  Level Boston Center
10:40AM 44.0242 -75.6742 298° West 152 175 17,600  Level Boston Center
10:41AM 44.0478 -75.7217 305° West 152 175 17,600  Level Boston Center
10:42AM 44.0892 -75.7325 349° North 147 169 17,600  Level Boston Center
10:43AM 44.1197 -75.7575 330° Northwest 139 160 17,600  Level Boston Center
10:44AM 44.0847 -75.8133 229° Southwest 112 129 17,600  Level Boston Center
10:45AM 44.0267 -75.8072 176° South 129 148 17,600  Level Boston Center
10:46AM 43.9639 -75.8064 179° South 186 214 17,600  Level Boston Center
10:47AM 43.9056 -75.8061 180° South 203 234 17,600  Level Boston Center
10:48AM 43.8431 -75.8056 180° South 216 249 17,600  Level Boston Center
10:49AM 43.7828 -75.8022 178° South 221 254 17,600  Level Boston Center
10:50AM 43.7264 -75.8019 180° South 216 249 17,600  Level Boston Center
10:51AM 43.6661 -75.8014 180° South 216 249 17,600  Level Boston Center
10:52AM 43.6097 -75.8011 180° South 216 249 17,600  Level Boston Center
10:53AM 43.5514 -75.8036 182° South 216 249 17,600  Level Boston Center
10:54AM 43.4869 -75.8000 178° South 216 249 17,600  Level Boston Center
10:55AM 43.4286 -75.7997 180° South 216 249 17,600  Level Boston Center
10:56AM 43.3700 -75.7992 180° South 216 249 17,600  Level Boston Center
10:57AM 43.3097 -75.7989 180° South 216 249 17,600  Level Boston Center
10:58AM 43.2514 -75.7983 180° South 216 249 17,600  Level Boston Center
10:59AM 43.1931 -75.7981 180° South 216 249 17,600  Level Boston Center
11:00AM 43.1347 -75.7978 180° South 216 249 17,600  Level Boston Center
11:01AM 43.0761 -75.7972 180° South 216 249 17,600  Level Boston Center
11:02AM 43.0181 -75.7942 178° South 216 249 17,600  Level Boston Center
11:03AM 42.9594 -75.7967 182° South 216 249 17,600  Level Boston Center
11:04AM 42.9011 -75.7964 180° South 216 249 17,600  Level Boston Center
11:05AM 42.8508 -75.8050 187° South 211 243 17,600  Level Boston Center
11:06AM 42.8683 -75.8483 299° West 122 140 17,600  Level Boston Center
11:07AM 42.9142 -75.8536 355° North 59 68 17,600  Level Boston Center
11:08AM 42.9600 -75.8533 360° North 115 132 17,600  Level Boston Center
11:09AM 43.0081 -75.8503 North 144 166 17,600  Level Boston Center
11:10AM 43.0536 -75.8528 358° North 158 182 17,600  Level Boston Center
11:11AM 43.0997 -75.8528 360° North 158 182 17,600  Level Boston Center
11:12AM 43.1475 -75.8525 360° North 158 182 17,600  Level Boston Center
11:13AM 43.1933 -75.8550 358° North 158 182 17,600  Level Boston Center
11:14AM 43.2411 -75.8578 358° North 163 188 17,600  Level Boston Center
11:15AM 43.2872 -75.8575 360° North 163 188 17,600  Level Boston Center
11:16AM 43.3350 -75.8572 360° North 163 188 17,600  Level Boston Center
11:17AM 43.3808 -75.8569 360° North 158 182 17,600  Level Boston Center
11:18AM 43.4308 -75.8597 358° North 158 182 17,600  Level Boston Center
11:19AM 43.4767 -75.8594 360° North 158 182 17,600  Level Boston Center
11:20AM 43.5183 -75.8592 360° North 158 182 17,600  Level Boston Center
11:21AM 43.5664 -75.8589 360° North 158 182 17,600  Level Boston Center
11:22AM 43.6142 -75.8617 358° North 158 182 17,600  Level Boston Center
11:23AM 43.6622 -75.8614 360° North 163 188 17,600  Level Boston Center
11:24AM 43.7103 -75.8614 360° North 163 188 17,600  Level Boston Center
11:25AM 43.7581 -75.8611 360° North 163 188 17,600  Level Boston Center
11:26AM 43.8039 -75.8608 360° North 163 188 17,600  Level Boston Center
11:27AM 43.8519 -75.8606 360° North 163 188 17,600  Level Boston Center
11:28AM 43.8997 -75.8633 358° North 163 188 17,600  Level Boston Center
11:29AM 43.9456 -75.8631 360° North 163 188 17,600  Level Boston Center
11:30AM 43.9936 -75.8631 360° North 163 188 17,600  Level Boston Center
11:31AM 44.0394 -75.8656 358° North 163 188 17,600  Level Boston Center
11:32AM 44.0853 -75.8683 358° North 163 188 17,600  Level Boston Center
11:33AM 44.1092 -75.9014 315° West 150 173 17,600  Level Boston Center
11:34AM 44.0606 -75.9275 201° Southwest 87 100 17,600  Level Boston Center
11:35AM 43.9981 -75.9239 178° South 142 163 17,600  Level Boston Center
11:36AM 43.9417 -75.9236 180° South 188 216 17,600  Level Boston Center
11:37AM 43.8814 -75.9228 179° South 208 239 17,600  Level Boston Center
11:38AM 43.8231 -75.9194 178° South 215 247 17,600  Level Boston Center
11:39AM 43.7667 -75.9192 180° South 215 247 17,600  Level Boston Center
11:40AM 43.6981 -75.9208 181° South 215 247 17,600  Level Boston Center
11:41AM 43.6397 -75.9175 178° South 215 247 17,600  Level Boston Center
11:42AM 43.5811 -75.9200 182° South 215 247 17,600  Level Boston Center
11:43AM 43.5250 -75.9194 180° South 215 247 17,600  Level Boston Center
11:44AM 43.4606 -75.9158 178° South 215 247 17,600  Level Boston Center
11:45AM 43.4042 -75.9156 180° South 215 247 17,600  Level Boston Center
11:47AM 43.3458 -75.9150 180° South 215 247 17,600  Level Boston Center
11:48AM 43.2750 -75.9139 179° South 215 247 17,600 -60 Level Boston Center
11:49AM 43.2203 -75.9278 190° South 215 247 17,500  Descending Boston Center
11:50AM 43.2428 -75.9406 338° Northwest 33 38 17,600  Climbing Boston Center
11:51AM 43.2733 -75.8967 46° Northeast 59 68 17,600  Level Boston Center
11:52AM 43.2639 -75.9389 253° West 51 59 17,600  Level Boston Center
11:53AM 43.2150 -75.9644 201° Southwest 111 128 17,600  Level Boston Center